Time;durP1;ratioP1;P1;durP2;ratioP2;P2;SDS_P1;SDS_P2;PMS_P1;PMS_P2;Temp;Humidity;BMP_temperature;BMP_pressure;BME280_temperature;BME280_humidity;BME280_pressure;Samples;Min_cycle;Max_cycle;Signal;HPM_P1;HPM_P2
2023/09/08 00:01:44;;;;;;;7.80;5.20;;;21.90;83.90;;;;;;5017953;28;20584;-70
2023/09/08 00:04:09;;;;;;;7.80;5.15;;;21.80;84.20;;;;;;5018063;28;20044;-70
2023/09/08 00:06:35;;;;;;;10.05;4.38;;;21.80;84.50;;;;;;5018023;28;20067;-70
2023/09/08 00:09:03;;;;;;;9.85;5.03;;;21.80;84.70;;;;;;5018234;28;20037;-70
2023/09/08 00:11:29;;;;;;;6.85;5.10;;;21.80;85.00;;;;;;5017851;28;20049;-70
2023/09/08 00:13:54;;;;;;;7.68;4.57;;;21.70;85.30;;;;;;5017877;28;20037;-70
2023/09/08 00:16:20;;;;;;;7.65;4.60;;;21.70;85.70;;;;;;5018148;28;20053;-70
2023/09/08 00:18:45;;;;;;;8.95;5.50;;;21.70;85.80;;;;;;5018080;28;20044;-70
2023/09/08 00:21:11;;;;;;;6.05;4.70;;;21.60;85.90;;;;;;5017651;28;20536;-70
2023/09/08 00:23:37;;;;;;;9.60;4.97;;;21.60;86.00;;;;;;5017735;28;20111;-70
2023/09/08 00:26:03;;;;;;;6.45;4.95;;;21.60;86.20;;;;;;5017614;28;20429;-70
2023/09/08 00:28:28;;;;;;;5.93;4.80;;;21.60;86.60;;;;;;5017631;28;20041;-70
2023/09/08 00:30:54;;;;;;;6.65;4.88;;;21.50;86.70;;;;;;5017671;28;20048;-70
2023/09/08 00:33:19;;;;;;;7.53;4.97;;;21.50;86.90;;;;;;5017575;28;20509;-70
2023/09/08 00:35:48;;;;;;;7.90;5.32;;;21.50;87.20;;;;;;5017517;28;20041;-70
2023/09/08 00:38:14;;;;;;;8.45;5.30;;;21.50;87.30;;;;;;5017384;28;20043;-70
2023/09/08 00:40:39;;;;;;;8.88;5.40;;;21.50;87.70;;;;;;5017253;28;20124;-70
2023/09/08 00:43:05;;;;;;;7.63;5.00;;;21.40;87.90;;;;;;5017637;28;20036;-70
2023/09/08 00:45:40;;;;;;;10.13;5.07;;;21.40;88.50;;;;;;5017300;28;20451;-70
2023/09/08 00:48:06;;;;;;;9.63;5.05;;;21.40;88.60;;;;;;5016955;28;20041;-70
2023/09/08 00:50:31;;;;;;;9.68;5.00;;;21.30;88.90;;;;;;5017038;28;20076;-70
2023/09/08 00:52:57;;;;;;;7.30;5.07;;;21.30;89.30;;;;;;5017462;28;20489;-70
2023/09/08 00:55:23;;;;;;;10.50;5.15;;;21.30;89.80;;;;;;5017374;28;20489;-70
2023/09/08 00:57:49;;;;;;;7.35;5.15;;;21.20;90.00;;;;;;5000753;28;20413;-70
2023/09/08 01:00:15;;;;;;;7.57;5.28;;;21.20;90.20;;;;;;5016994;28;20044;-70
2023/09/08 01:02:41;;;;;;;8.05;5.03;;;21.20;90.20;;;;;;5000542;28;20045;-70
2023/09/08 01:05:06;;;;;;;7.50;4.88;;;21.20;90.50;;;;;;5017188;28;20397;-70
2023/09/08 01:07:32;;;;;;;6.97;5.00;;;21.10;90.50;;;;;;5017115;28;20041;-70
2023/09/08 01:10:03;;;;;;;7.82;4.88;;;21.10;90.60;;;;;;5016814;28;20120;-70
2023/09/08 01:12:29;;;;;;;9.85;5.32;;;21.00;90.80;;;;;;5016794;28;20041;-70
2023/09/08 01:14:55;;;;;;;12.25;5.40;;;21.10;91.00;;;;;;5016990;28;20037;-70
2023/09/08 01:17:21;;;;;;;9.18;4.85;;;21.00;91.00;;;;;;5000315;28;20490;-70
2023/09/08 01:19:48;;;;;;;8.07;4.88;;;21.00;91.30;;;;;;5016944;28;20136;-70
2023/09/08 01:22:32;;;;;;;9.07;5.20;;;21.00;91.40;;;;;;5016497;28;20060;-70
2023/09/08 01:25:02;;;;;;;7.22;5.20;;;21.00;91.50;;;;;;5016837;28;20073;-70
2023/09/08 01:27:31;;;;;;;6.00;5.03;;;20.90;91.70;;;;;;5016520;28;20077;-70
2023/09/08 01:29:58;;;;;;;6.25;5.10;;;20.90;91.90;;;;;;5016372;28;20037;-70
2023/09/08 01:32:24;;;;;;;8.30;5.75;;;20.80;92.00;;;;;;4999918;28;20044;-70
2023/09/08 01:34:50;;;;;;;7.78;4.70;;;20.80;92.10;;;;;;5016345;28;20052;-70
2023/09/08 01:37:16;;;;;;;8.35;5.22;;;20.80;92.10;;;;;;5016293;28;20116;-70
2023/09/08 01:39:41;;;;;;;6.65;5.18;;;20.80;92.20;;;;;;5016301;28;20041;-70
2023/09/08 01:42:07;;;;;;;9.52;5.57;;;20.80;92.30;;;;;;5016156;28;20125;-70
2023/09/08 01:44:32;;;;;;;6.53;4.53;;;20.80;92.40;;;;;;5016186;28;20042;-70
2023/09/08 01:46:58;;;;;;;7.35;5.78;;;20.80;92.60;;;;;;5016504;28;20087;-70
2023/09/08 01:49:24;;;;;;;11.30;5.47;;;20.70;92.60;;;;;;5016148;28;20493;-70
2023/09/08 01:51:50;;;;;;;8.20;5.57;;;20.70;92.70;;;;;;5016029;28;20410;-70
2023/09/08 01:54:16;;;;;;;10.02;5.30;;;20.70;92.80;;;;;;5016054;28;20498;-70
2023/09/08 01:56:42;;;;;;;10.85;5.72;;;20.70;92.90;;;;;;5016260;28;20041;-70
2023/09/08 01:59:07;;;;;;;8.30;5.63;;;20.70;93.00;;;;;;5015954;28;20440;-70
2023/09/08 02:01:33;;;;;;;8.43;5.65;;;20.60;93.10;;;;;;5015777;28;20049;-70
2023/09/08 02:03:58;;;;;;;6.53;4.88;;;20.60;93.20;;;;;;5015867;28;20041;-70
2023/09/08 02:06:24;;;;;;;9.98;5.82;;;20.60;93.50;;;;;;5015880;28;20037;-70
2023/09/08 02:08:49;;;;;;;8.23;5.57;;;20.50;93.60;;;;;;5016095;28;20037;-70
2023/09/08 02:11:15;;;;;;;6.70;5.28;;;20.50;93.80;;;;;;5015674;28;20490;-70
2023/09/08 02:13:42;;;;;;;7.70;5.22;;;20.40;93.90;;;;;;5015810;28;20087;-70
2023/09/08 02:16:12;;;;;;;9.15;5.43;;;20.40;94.00;;;;;;5016017;28;20045;-70
2023/09/08 02:18:38;;;;;;;7.95;5.72;;;20.40;94.20;;;;;;5015978;28;20115;-70
2023/09/08 02:21:04;;;;;;;10.77;5.43;;;20.40;94.40;;;;;;5015511;28;20501;-70
2023/09/08 02:23:30;;;;;;;9.93;5.32;;;20.30;94.50;;;;;;5015599;28;20045;-70
2023/09/08 02:25:55;;;;;;;7.78;5.50;;;20.30;94.50;;;;;;5015586;28;20034;-70
2023/09/08 02:28:21;;;;;;;8.45;5.70;;;20.30;94.80;;;;;;4999195;28;20142;-70
2023/09/08 02:30:46;;;;;;;8.45;5.45;;;20.20;94.80;;;;;;5015560;28;20034;-70
2023/09/08 02:33:12;;;;;;;8.15;5.53;;;20.20;95.00;;;;;;5015574;28;20505;-70
2023/09/08 02:35:39;;;;;;;9.75;5.55;;;20.20;95.30;;;;;;5015462;28;20037;-70
2023/09/08 02:38:05;;;;;;;7.25;6.13;;;20.10;95.40;;;;;;5015396;28;20521;-70
2023/09/08 02:40:30;;;;;;;7.22;5.95;;;20.10;95.40;;;;;;4998998;28;20116;-70
2023/09/08 02:42:56;;;;;;;8.32;5.97;;;20.10;95.60;;;;;;4999014;28;20045;-70
2023/09/08 02:45:21;;;;;;;11.52;5.88;;;20.10;95.70;;;;;;5015316;28;20037;-70
2023/09/08 02:47:47;;;;;;;10.50;5.55;;;20.10;95.90;;;;;;5015328;28;20029;-70
2023/09/08 02:50:12;;;;;;;7.05;6.00;;;20.00;95.80;;;;;;5015336;28;20077;-70
2023/09/08 02:52:38;;;;;;;6.15;5.55;;;20.00;96.10;;;;;;5015454;28;20067;-70
2023/09/08 02:55:04;;;;;;;7.78;6.43;;;20.00;96.10;;;;;;5015301;28;20099;-70
2023/09/08 02:57:29;;;;;;;7.43;5.65;;;20.00;96.20;;;;;;5015445;28;20087;-70
2023/09/08 02:59:56;;;;;;;10.70;5.90;;;20.00;96.30;;;;;;5015224;28;20502;-70
2023/09/08 03:02:24;;;;;;;6.75;5.70;;;20.00;96.40;;;;;;5015040;28;20041;-70
2023/09/08 03:04:50;;;;;;;10.00;6.18;;;19.90;96.50;;;;;;5015111;28;20120;-70
2023/09/08 03:07:16;;;;;;;9.07;6.65;;;19.90;96.60;;;;;;5015363;28;20038;-70
2023/09/08 03:09:41;;;;;;;11.70;6.80;;;19.90;96.60;;;;;;5015165;28;20045;-70
2023/09/08 03:12:07;;;;;;;8.75;6.15;;;19.90;96.60;;;;;;5016281;28;20045;-70
2023/09/08 03:14:33;;;;;;;14.90;6.28;;;19.90;96.80;;;;;;5019030;28;20080;-70
2023/09/08 03:16:58;;;;;;;10.35;6.20;;;19.90;96.80;;;;;;5018976;28;20049;-70
2023/09/08 03:19:24;;;;;;;10.48;6.28;;;19.80;96.90;;;;;;5019193;28;20079;-70
2023/09/08 03:21:49;;;;;;;9.95;5.68;;;19.80;97.00;;;;;;5018766;28;20075;-70
2023/09/08 03:24:15;;;;;;;9.05;6.32;;;19.80;97.00;;;;;;5019148;28;20038;-70
2023/09/08 03:26:41;;;;;;;9.15;6.32;;;19.80;97.10;;;;;;5018794;28;20494;-70
2023/09/08 03:29:06;;;;;;;10.48;6.40;;;19.80;97.30;;;;;;5018908;28;20070;-70
2023/09/08 03:31:32;;;;;;;8.68;5.70;;;19.70;97.40;;;;;;5018514;28;20509;-70
2023/09/08 03:33:58;;;;;;;8.10;6.38;;;19.70;97.50;;;;;;5018677;28;20111;-70
2023/09/08 03:36:24;;;;;;;9.02;6.03;;;19.70;97.50;;;;;;5018627;28;20042;-70
2023/09/08 03:38:50;;;;;;;9.85;6.53;;;19.70;97.50;;;;;;5018580;28;20567;-70
2023/09/08 03:41:15;;;;;;;10.10;6.82;;;19.60;97.70;;;;;;5018438;28;20045;-70
2023/09/08 03:43:41;;;;;;;8.48;6.38;;;19.70;97.80;;;;;;5018498;28;20072;-70
2023/09/08 03:46:07;;;;;;;8.27;6.50;;;19.60;97.80;;;;;;5018469;28;20120;-70
2023/09/08 03:48:32;;;;;;;9.23;6.68;;;19.60;98.00;;;;;;5018388;28;20144;-70
2023/09/08 03:50:58;;;;;;;9.90;6.47;;;19.60;98.00;;;;;;5018323;28;20033;-70
2023/09/08 03:53:24;;;;;;;10.20;7.10;;;19.50;98.10;;;;;;5018570;28;20084;-70
2023/09/08 03:55:49;;;;;;;9.25;6.53;;;19.50;98.20;;;;;;5018287;28;20461;-70
2023/09/08 03:58:15;;;;;;;8.65;6.90;;;19.40;98.40;;;;;;5018174;28;20068;-70
2023/09/08 04:00:41;;;;;;;9.80;7.10;;;19.40;98.40;;;;;;5018095;28;20077;-70
2023/09/08 04:03:07;;;;;;;7.88;7.07;;;19.40;98.60;;;;;;5018068;28;20072;-70
2023/09/08 04:05:33;;;;;;;10.93;6.55;;;19.40;98.60;;;;;;5018118;28;20041;-70
2023/09/08 04:07:59;;;;;;;8.20;6.80;;;19.40;98.50;;;;;;5018289;28;20069;-70
2023/09/08 04:10:24;;;;;;;8.07;6.70;;;19.40;98.70;;;;;;5001907;28;20041;-70
2023/09/08 04:12:50;;;;;;;11.63;7.60;;;19.30;98.90;;;;;;5018164;28;20494;-70
2023/09/08 04:15:16;;;;;;;8.77;6.80;;;19.30;98.90;;;;;;5017919;28;20042;-70
2023/09/08 04:17:41;;;;;;;13.15;6.85;;;19.30;99.10;;;;;;5018156;28;20041;-70
2023/09/08 04:20:08;;;;;;;10.63;6.95;;;19.30;99.20;;;;;;5001774;28;20040;-70
2023/09/08 04:22:34;;;;;;;12.00;7.05;;;19.30;99.30;;;;;;5017685;28;20042;-70
2023/09/08 04:25:00;;;;;;;8.07;7.03;;;19.30;99.40;;;;;;5016594;28;20433;-70
2023/09/08 04:27:25;;;;;;;9.57;6.68;;;19.20;99.40;;;;;;5017662;28;20494;-70
2023/09/08 04:29:51;;;;;;;11.88;7.00;;;19.20;99.50;;;;;;5017606;28;20048;-70
2023/09/08 04:32:17;;;;;;;9.13;7.22;;;19.10;99.60;;;;;;5017389;28;20041;-70
2023/09/08 04:34:42;;;;;;;9.68;6.75;;;19.10;99.60;;;;;;5017611;28;20063;-70
2023/09/08 04:37:08;;;;;;;9.10;7.85;;;19.10;99.70;;;;;;5017499;28;20124;-70
2023/09/08 04:39:35;;;;;;;10.13;6.78;;;19.10;99.80;;;;;;5001071;28;20046;-70
2023/09/08 04:42:01;;;;;;;7.07;6.38;;;19.10;99.80;;;;;;5017187;28;20436;-70
2023/09/08 04:44:27;;;;;;;11.95;7.40;;;19.10;99.90;;;;;;5001304;28;20029;-70
2023/09/08 04:46:53;;;;;;;8.05;6.75;;;19.10;99.90;;;;;;5017301;28;20383;-70
2023/09/08 04:49:18;;;;;;;9.50;7.30;;;19.10;99.90;;;;;;5000935;28;20060;-70
2023/09/08 04:51:44;;;;;;;9.30;7.40;;;19.00;99.90;;;;;;5017431;28;20037;-70
2023/09/08 04:54:10;;;;;;;8.30;7.20;;;19.00;99.90;;;;;;5017151;28;20489;-70
2023/09/08 04:56:35;;;;;;;10.23;7.22;;;19.00;99.90;;;;;;5017085;28;20038;-70
2023/09/08 04:59:01;;;;;;;8.32;7.47;;;18.90;99.90;;;;;;5017403;28;20041;-70
2023/09/08 05:01:27;;;;;;;10.95;7.40;;;19.00;99.90;;;;;;5000581;28;20498;-70
2023/09/08 05:03:53;;;;;;;8.85;7.20;;;18.90;99.90;;;;;;5016972;28;20048;-70
2023/09/08 05:06:19;;;;;;;8.32;7.28;;;18.90;99.90;;;;;;5017170;28;20048;-70
2023/09/08 05:08:45;;;;;;;9.65;7.03;;;18.90;99.90;;;;;;5016950;28;20037;-70
2023/09/08 05:11:10;;;;;;;12.63;7.57;;;18.90;99.90;;;;;;5016981;28;20060;-70
2023/09/08 05:13:36;;;;;;;9.25;7.00;;;18.90;99.90;;;;;;5016883;28;20044;-70
2023/09/08 05:16:10;;;;;;;6.78;6.07;;;18.80;99.90;;;;;;5016843;28;20037;-76
2023/09/08 05:18:37;;;;;;;10.85;7.03;;;18.90;99.90;;;;;;5016796;28;20038;-77
2023/09/08 05:21:03;;;;;;;10.05;7.18;;;18.90;99.90;;;;;;5000255;28;20045;-75
2023/09/08 05:23:29;;;;;;;10.57;6.95;;;18.90;99.90;;;;;;5016678;28;20034;-76
2023/09/08 05:25:55;;;;;;;8.63;7.32;;;19.00;99.90;;;;;;5016890;28;20072;-74
2023/09/08 05:28:20;;;;;;;11.25;7.03;;;19.00;99.90;;;;;;5016635;28;20401;-73
2023/09/08 05:30:46;;;;;;;10.18;6.70;;;19.00;99.90;;;;;;5016424;28;20091;-73
2023/09/08 05:33:11;;;;;;;8.70;6.97;;;19.00;99.90;;;;;;5016606;28;20055;-73
2023/09/08 05:35:37;;;;;;;10.30;7.07;;;19.00;99.90;;;;;;4999868;28;20435;-73
2023/09/08 05:38:03;;;;;;;12.50;7.68;;;19.00;99.90;;;;;;5016696;28;20071;-73
2023/09/08 05:40:29;;;;;;;10.63;6.55;;;19.10;99.90;;;;;;5016297;28;20482;-73
2023/09/08 05:42:54;;;;;;;8.63;7.20;;;19.10;99.90;;;;;;5016321;28;20037;-73
2023/09/08 05:45:20;;;;;;;11.57;6.88;;;19.10;99.90;;;;;;5016291;28;20056;-73
2023/09/08 05:47:46;;;;;;;8.10;7.30;;;19.10;99.90;;;;;;4999981;28;20183;-73
2023/09/08 05:50:11;;;;;;;10.27;7.13;;;19.10;99.90;;;;;;5000161;28;20041;-73
2023/09/08 05:52:37;;;;;;;8.20;6.38;;;19.20;99.90;;;;;;5000051;28;20545;-73
2023/09/08 05:55:03;;;;;;;9.00;6.97;;;19.20;99.90;;;;;;4999878;28;20601;-73
2023/09/08 05:57:28;;;;;;;12.02;7.40;;;19.20;99.90;;;;;;5016066;28;20053;-73
2023/09/08 05:59:54;;;;;;;12.50;6.95;;;19.20;99.90;;;;;;5016111;28;20409;-72
2023/09/08 06:02:19;;;;;;;9.95;7.28;;;19.30;99.90;;;;;;4999548;28;20180;-72
2023/09/08 06:04:45;;;;;;;8.50;6.78;;;19.30;99.90;;;;;;5016283;28;20034;-73
2023/09/08 06:07:10;;;;;;;9.75;7.13;;;19.30;99.90;;;;;;5016011;28;20383;-73
2023/09/08 06:09:36;;;;;;;10.88;6.85;;;19.40;99.90;;;;;;5016008;28;20045;-72
2023/09/08 06:12:02;;;;;;;11.70;7.45;;;19.40;99.90;;;;;;4999683;28;20045;-73
2023/09/08 06:14:27;;;;;;;7.47;6.78;;;19.40;99.90;;;;;;5015816;28;20045;-73
2023/09/08 06:16:53;;;;;;;12.93;7.18;;;19.40;99.90;;;;;;5016097;28;20071;-73
2023/09/08 06:19:18;;;;;;;10.48;7.50;;;19.50;99.90;;;;;;5015712;28;20033;-73
2023/09/08 06:21:44;;;;;;;10.20;8.13;;;19.50;99.90;;;;;;5015548;28;20045;-73
2023/09/08 06:24:09;;;;;;;8.32;7.07;;;19.50;99.90;;;;;;5015952;28;20113;-74
2023/09/08 06:26:35;;;;;;;9.18;7.05;;;19.60;99.90;;;;;;4999285;28;20476;-73
2023/09/08 06:29:01;;;;;;;12.38;7.60;;;19.60;99.90;;;;;;4999543;28;20041;-73
2023/09/08 06:31:27;;;;;;;11.75;7.47;;;19.70;99.90;;;;;;5015412;28;20379;-75
2023/09/08 06:33:52;;;;;;;13.10;7.53;;;19.70;99.90;;;;;;4999417;28;20128;-75
2023/09/08 06:36:18;;;;;;;12.75;7.57;;;19.70;99.90;;;;;;5015831;28;20085;-73
2023/09/08 06:38:44;;;;;;;11.65;7.53;;;19.80;99.90;;;;;;5015335;28;20461;-73
2023/09/08 06:41:11;;;;;;;16.80;8.05;;;19.80;99.90;;;;;;5015243;28;20060;-73
2023/09/08 06:43:37;;;;;;;12.88;7.78;;;19.90;99.90;;;;;;5015377;28;20091;-73
2023/09/08 06:46:03;;;;;;;9.68;7.85;;;19.90;99.90;;;;;;5015296;28;20037;-73
2023/09/08 06:48:29;;;;;;;13.43;7.63;;;19.90;99.90;;;;;;5014975;28;20045;-73
2023/09/08 06:50:56;;;;;;;12.00;7.72;;;19.90;99.90;;;;;;5015522;28;20084;-73
2023/09/08 06:53:22;;;;;;;12.73;7.32;;;19.90;99.90;;;;;;5015601;28;20060;-73
2023/09/08 06:55:48;;;;;;;11.70;7.78;;;20.00;99.90;;;;;;5015288;28;20037;-73
2023/09/08 06:58:16;;;;;;;15.30;8.00;;;20.10;99.90;;;;;;5015576;28;20041;-73
2023/09/08 07:00:42;;;;;;;10.30;7.50;;;20.10;99.90;;;;;;5015146;28;20037;-73
2023/09/08 07:03:08;;;;;;;9.20;7.95;;;20.10;99.90;;;;;;5015175;28;20045;-73
2023/09/08 07:05:34;;;;;;;9.95;7.40;;;20.20;99.90;;;;;;5015183;28;20045;-73
2023/09/08 07:08:00;;;;;;;10.73;7.78;;;20.30;99.90;;;;;;4999149;28;20041;-73
2023/09/08 07:10:25;;;;;;;11.00;7.38;;;20.30;99.90;;;;;;5015092;28;20413;-73
2023/09/08 07:12:51;;;;;;;11.35;7.38;;;20.30;99.90;;;;;;5015428;28;20042;-73
2023/09/08 07:15:17;;;;;;;16.92;7.60;;;20.40;99.90;;;;;;5015399;28;20406;-73
2023/09/08 07:17:42;;;;;;;8.38;6.97;;;20.50;99.90;;;;;;5015117;28;20410;-73
2023/09/08 07:20:08;;;;;;;8.93;7.07;;;20.60;99.90;;;;;;5015385;28;20045;-73
2023/09/08 07:22:34;;;;;;;8.05;6.95;;;20.60;99.90;;;;;;5015002;28;20454;-73
2023/09/08 07:24:59;;;;;;;11.70;6.30;;;20.70;99.90;;;;;;5015001;28;20545;-73
2023/09/08 07:27:25;;;;;;;9.90;6.38;;;20.80;99.90;;;;;;4998695;28;20034;-73
2023/09/08 07:29:51;;;;;;;7.85;6.32;;;20.90;99.90;;;;;;4998959;28;20026;-74
2023/09/08 07:32:19;;;;;;;9.95;6.38;;;20.90;99.90;;;;;;5015049;28;20037;-74
2023/09/08 07:34:44;;;;;;;10.02;6.68;;;21.00;99.90;;;;;;5015000;28;20045;-74
2023/09/08 07:37:10;;;;;;;9.10;6.13;;;21.10;99.90;;;;;;5015197;28;20127;-74
2023/09/08 07:39:35;;;;;;;6.68;6.00;;;21.20;99.90;;;;;;4998660;28;20516;-74
2023/09/08 07:42:02;;;;;;;7.43;5.80;;;21.30;99.70;;;;;;4998611;28;20048;-74
2023/09/08 07:44:27;;;;;;;9.27;6.43;;;21.40;99.50;;;;;;5014890;28;20544;-74
2023/09/08 07:46:55;;;;;;;7.18;6.13;;;21.50;99.70;;;;;;5014864;28;20041;-74
2023/09/08 07:49:21;;;;;;;9.73;5.97;;;21.60;99.50;;;;;;5014853;28;20042;-74
2023/09/08 07:51:47;;;;;;;10.65;5.93;;;21.80;99.30;;;;;;5014707;28;20447;-74
2023/09/08 07:54:13;;;;;;;6.80;5.80;;;21.90;99.00;;;;;;5014814;28;20486;-74
2023/09/08 07:56:40;;;;;;;12.80;6.60;;;22.00;99.00;;;;;;5014808;28;20080;-74
2023/09/08 07:59:06;;;;;;;7.47;5.80;;;22.10;98.50;;;;;;5017193;28;20054;-73
2023/09/08 08:01:32;;;;;;;9.77;6.15;;;22.20;98.20;;;;;;5018077;28;20045;-73
2023/09/08 08:03:58;;;;;;;12.63;6.13;;;22.40;97.90;;;;;;5018190;28;20033;-73
2023/09/08 08:06:24;;;;;;;11.05;5.68;;;22.50;97.50;;;;;;5018162;28;20088;-73
2023/09/08 08:08:49;;;;;;;7.38;5.80;;;22.70;97.00;;;;;;5018058;28;20095;-73
2023/09/08 08:11:19;;;;;;;12.70;5.78;;;22.80;96.90;;;;;;5018054;28;20073;-73
2023/09/08 08:13:46;;;;;;;8.63;5.32;;;23.00;96.60;;;;;;5018224;28;20502;-73
2023/09/08 08:16:11;;;;;;;9.35;5.43;;;23.20;96.10;;;;;;5001730;28;20044;-73
2023/09/08 08:18:37;;;;;;;7.97;5.30;;;23.30;95.30;;;;;;5018160;28;20037;-73
2023/09/08 08:21:03;;;;;;;6.10;5.22;;;23.50;94.70;;;;;;5001452;28;20080;-73
2023/09/08 08:23:30;;;;;;;8.30;5.28;;;23.70;94.10;;;;;;5018124;28;20041;-73
2023/09/08 08:25:56;;;;;;;11.48;5.45;;;23.90;93.70;;;;;;5017822;28;20048;-73
2023/09/08 08:28:22;;;;;;;7.88;5.47;;;24.10;93.30;;;;;;5017705;28;20037;-73
2023/09/08 08:30:47;;;;;;;6.50;4.80;;;24.30;92.70;;;;;;5001470;28;20026;-73
2023/09/08 08:33:13;;;;;;;10.65;4.88;;;24.50;93.00;;;;;;5017707;28;20490;-74
2023/09/08 08:35:39;;;;;;;6.32;4.40;;;24.70;92.40;;;;;;5001272;28;20037;-73
2023/09/08 08:38:05;;;;;;;6.63;4.63;;;24.90;92.00;;;;;;5017525;28;20052;-74
2023/09/08 08:40:33;;;;;;;7.80;4.78;;;25.10;91.30;;;;;;5017365;28;20064;-74
2023/09/08 08:43:00;;;;;;;7.20;5.43;;;25.30;90.60;;;;;;5017447;28;20045;-75
2023/09/08 08:45:26;;;;;;;7.03;4.82;;;25.50;90.10;;;;;;5017442;28;20034;-75
2023/09/08 08:47:53;;;;;;;6.28;5.07;;;25.60;90.00;;;;;;5017298;28;20080;-75
2023/09/08 08:50:20;;;;;;;8.73;5.00;;;25.70;88.10;;;;;;5017352;28;20072;-74
2023/09/08 08:52:46;;;;;;;8.13;4.55;;;26.00;87.30;;;;;;5000966;28;20076;-73
2023/09/08 08:55:14;;;;;;;7.63;4.90;;;26.30;86.20;;;;;;5017604;28;20038;-73
2023/09/08 08:57:40;;;;;;;5.90;4.38;;;26.50;84.70;;;;;;5017416;28;20072;-73
2023/09/08 09:00:11;;;;;;;7.65;4.70;;;26.80;83.10;;;;;;5017104;28;20045;-74
2023/09/08 09:02:42;;;;;;;9.45;4.30;;;27.00;81.60;;;;;;5017125;28;20048;-73
2023/09/08 09:05:12;;;;;;;7.57;4.35;;;27.20;80.40;;;;;;5017078;28;20049;-73
2023/09/08 09:07:41;;;;;;;8.20;4.40;;;27.40;78.10;;;;;;5000932;28;20497;-73
2023/09/08 09:10:07;;;;;;;6.20;3.97;;;27.70;77.50;;;;;;5016605;28;20120;-73
2023/09/08 09:12:33;;;;;;;5.88;4.32;;;27.90;76.30;;;;;;5016968;28;20033;-73
2023/09/08 09:15:00;;;;;;;10.75;5.28;;;28.10;75.20;;;;;;5016817;28;20042;-73
2023/09/08 09:17:26;;;;;;;5.97;4.40;;;28.10;74.60;;;;;;5016771;28;20046;-73
2023/09/08 09:20:12;;;;;;;6.03;3.85;;;28.30;73.70;;;;;;5016779;28;20077;-73
2023/09/08 09:22:39;;;;;;;7.85;4.50;;;28.50;71.50;;;;;;5017022;28;20252;-73
2023/09/08 09:25:07;;;;;;;8.93;4.38;;;28.60;71.40;;;;;;5016665;28;20133;-73
2023/09/08 09:27:35;;;;;;;6.85;4.43;;;28.80;71.20;;;;;;5016921;28;20036;-73
2023/09/08 09:30:01;;;;;;;8.07;3.97;;;28.90;71.40;;;;;;5016575;28;20498;-73
2023/09/08 09:32:29;;;;;;;5.90;3.95;;;29.10;70.80;;;;;;5016336;28;20051;-73
2023/09/08 09:34:56;;;;;;;7.50;4.22;;;29.30;70.10;;;;;;5000388;28;20052;-73
2023/09/08 09:37:22;;;;;;;8.68;4.50;;;29.50;68.90;;;;;;5016523;28;20056;-73
2023/09/08 09:39:49;;;;;;;9.23;4.63;;;29.80;68.70;;;;;;5016642;28;20037;-73
2023/09/08 09:42:15;;;;;;;10.38;4.25;;;30.00;68.70;;;;;;4999884;28;20079;-73
2023/09/08 09:44:41;;;;;;;8.68;4.30;;;30.10;67.60;;;;;;5000279;28;20033;-73
2023/09/08 09:47:09;;;;;;;7.93;4.25;;;30.30;66.70;;;;;;5016507;28;20493;-73
2023/09/08 09:49:42;;;;;;;10.43;4.07;;;30.40;67.60;;;;;;4999952;28;20091;-73
2023/09/08 09:52:08;;;;;;;7.45;4.25;;;30.60;66.40;;;;;;5016431;28;20519;-73
2023/09/08 09:54:34;;;;;;;9.65;4.25;;;30.80;66.10;;;;;;5016152;28;20140;-73
2023/09/08 09:57:01;;;;;;;5.10;3.70;;;30.90;65.40;;;;;;5016176;28;20037;-73
2023/09/08 09:59:27;;;;;;;5.65;3.80;;;31.00;65.10;;;;;;5016079;28;20049;-73
2023/09/08 10:01:53;;;;;;;8.50;4.35;;;31.10;64.20;;;;;;5015902;28;20063;-73
2023/09/08 10:04:19;;;;;;;9.45;5.00;;;31.30;64.60;;;;;;4999942;28;20052;-73
2023/09/08 10:06:46;;;;;;;16.60;5.38;;;31.40;64.50;;;;;;5016152;28;20044;-73
2023/09/08 10:09:16;;;;;;;5.82;4.47;;;31.40;65.20;;;;;;5016123;28;20069;-74
2023/09/08 10:11:49;;;;;;;5.93;4.18;;;31.50;64.30;;;;;;5015741;28;20047;-74
2023/09/08 10:14:16;;;;;;;7.95;4.10;;;31.60;62.70;;;;;;5015787;28;20492;-73
2023/09/08 10:16:45;;;;;;;7.80;4.13;;;31.80;63.30;;;;;;4999487;28;20414;-73
2023/09/08 10:19:11;;;;;;;6.38;3.97;;;31.90;62.60;;;;;;5015712;28;20551;-73
2023/09/08 10:21:46;;;;;;;7.60;4.72;;;32.00;62.60;;;;;;5014721;28;20056;-73
2023/09/08 10:24:24;;;;;;;8.13;4.03;;;32.10;62.20;;;;;;4999181;28;20040;-74
2023/09/08 10:27:20;;;;;;;7.07;3.78;;;32.20;62.50;;;;;;5015983;28;20084;-74
2023/09/08 10:29:46;;;;;;;5.13;3.67;;;32.30;62.30;;;;;;5013310;28;20063;-74
2023/09/08 10:32:12;;;;;;;9.70;3.88;;;32.40;61.70;;;;;;5015253;28;20051;-74
2023/09/08 10:34:39;;;;;;;9.20;3.67;;;32.50;61.70;;;;;;4999411;28;20089;-74
2023/09/08 10:37:19;;;;;;;10.02;4.30;;;32.70;62.60;;;;;;5015763;28;20401;-74
2023/09/08 10:39:45;;;;;;;10.30;3.67;;;32.80;61.00;;;;;;4999190;28;20502;-74
2023/09/08 10:42:17;;;;;;;6.30;3.80;;;32.90;60.60;;;;;;4999000;28;20034;-74
2023/09/08 10:45:15;;;;;;;7.72;4.05;;;33.00;60.40;;;;;;5015563;28;20493;-73
2023/09/08 10:47:46;;;;;;;6.38;3.78;;;33.20;61.40;;;;;;5015266;28;20498;-71
2023/09/08 10:50:19;;;;;;;8.20;3.90;;;33.20;59.80;;;;;;5015334;28;20409;-73
2023/09/08 10:53:03;;;;;;;6.55;3.90;;;33.30;59.90;;;;;;5015479;28;20041;-73
2023/09/08 10:55:53;;;;;;;6.10;3.47;;;33.40;58.70;;;;;;5015540;28;20136;-73
2023/09/08 10:58:33;;;;;;;6.32;3.50;;;33.40;59.70;;;;;;5015260;28;20041;-71
2023/09/08 11:01:01;;;;;;;7.28;4.00;;;33.50;59.30;;;;;;5015234;28;20034;-72
2023/09/08 11:03:49;;;;;;;7.60;4.07;;;33.50;59.90;;;;;;4999178;28;20041;-72
2023/09/08 11:06:19;;;;;;;8.30;3.88;;;33.60;57.60;;;;;;5015256;28;20037;-72
2023/09/08 11:08:45;;;;;;;7.38;3.70;;;33.70;57.00;;;;;;5015069;28;20494;-72
2023/09/08 11:11:12;;;;;;;7.90;3.85;;;33.80;56.80;;;;;;5015297;28;20383;-72
2023/09/08 11:13:41;;;;;;;5.45;3.50;;;33.90;56.80;;;;;;5015458;28;20107;-72
2023/09/08 11:16:07;;;;;;;6.10;3.50;;;33.90;56.60;;;;;;5015080;28;20044;-72
2023/09/08 11:18:34;;;;;;;6.72;3.50;;;34.00;56.10;;;;;;5015310;28;20124;-72
2023/09/08 11:21:02;;;;;;;7.47;3.63;;;34.00;55.20;;;;;;5015223;28;20041;-71
2023/09/08 11:23:28;;;;;;;6.32;3.35;;;34.00;56.10;;;;;;5014992;28;20041;-71
2023/09/08 11:25:54;;;;;;;7.30;3.63;;;34.10;55.70;;;;;;5032918;28;20045;-71
2023/09/08 11:28:24;;;;;;;6.72;3.40;;;34.20;55.20;;;;;;5015354;28;20041;-70
2023/09/08 11:30:50;;;;;;;6.57;3.67;;;34.30;54.90;;;;;;5014753;28;20037;-70
2023/09/08 11:33:17;;;;;;;6.97;3.67;;;34.30;53.00;;;;;;5016319;28;20045;-70
2023/09/08 11:35:45;;;;;;;7.40;3.30;;;34.30;53.80;;;;;;5019053;28;20401;-71
2023/09/08 11:38:11;;;;;;;7.53;3.40;;;34.40;54.10;;;;;;5018963;28;20110;-70
2023/09/08 11:40:37;;;;;;;5.38;3.13;;;34.60;53.70;;;;;;5018563;28;20561;-70
2023/09/08 11:43:03;;;;;;;6.53;3.10;;;34.60;53.60;;;;;;5018406;28;20052;-70
2023/09/08 11:45:30;;;;;;;8.98;3.38;;;34.50;52.60;;;;;;5018437;28;20042;-70
2023/09/08 11:47:57;;;;;;;4.88;2.90;;;34.50;51.80;;;;;;5018508;28;20406;-70
2023/09/08 11:50:23;;;;;;;3.75;3.20;;;34.60;51.60;;;;;;5018431;28;20042;-71
2023/09/08 11:52:53;;;;;;;6.22;2.90;;;34.60;50.80;;;;;;5018450;28;20041;-70
2023/09/08 11:55:20;;;;;;;7.68;2.88;;;34.60;51.70;;;;;;5036104;28;20033;-70
2023/09/08 11:57:57;;;;;;;4.38;3.10;;;34.70;51.70;;;;;;5018607;28;20125;-70
2023/09/08 12:00:23;;;;;;;4.03;2.72;;;34.90;52.40;;;;;;5018530;28;20060;-71
2023/09/08 12:02:50;;;;;;;4.30;3.00;;;34.90;50.80;;;;;;5018137;28;20489;-71
2023/09/08 12:05:22;;;;;;;6.63;3.30;;;35.00;50.20;;;;;;5018227;28;20045;-71
2023/09/08 12:07:49;;;;;;;5.28;3.20;;;35.00;49.60;;;;;;5018172;28;20041;-71
2023/09/08 12:10:15;;;;;;;4.63;3.13;;;35.00;49.80;;;;;;5001795;28;20493;-71
2023/09/08 12:12:53;;;;;;;5.05;3.10;;;35.10;48.70;;;;;;5018037;28;20071;-71
2023/09/08 12:15:34;;;;;;;6.70;3.60;;;35.20;47.80;;;;;;5018020;28;20045;-71
2023/09/08 12:18:03;;;;;;;6.13;3.15;;;35.30;49.20;;;;;;5018010;28;20045;-71
2023/09/08 12:20:29;;;;;;;5.45;3.03;;;35.40;48.50;;;;;;5017910;28;20041;-71
2023/09/08 12:22:57;;;;;;;5.00;3.25;;;35.40;48.70;;;;;;5017778;28;20084;-71
2023/09/08 12:25:22;;;;;;;6.38;3.42;;;35.50;48.30;;;;;;5017936;28;20073;-71
2023/09/08 12:27:51;;;;;;;5.78;3.03;;;35.50;47.40;;;;;;5017848;28;20074;-71
2023/09/08 12:30:18;;;;;;;4.22;2.85;;;35.50;47.20;;;;;;5017972;28;20045;-71
2023/09/08 12:32:48;;;;;;;5.43;3.03;;;35.30;47.80;;;;;;5017549;28;20053;-71
2023/09/08 12:35:21;;;;;;;8.77;3.25;;;35.20;47.80;;;;;;5017756;28;20049;-71
2023/09/08 12:37:47;;;;;;;7.95;3.00;;;35.10;48.60;;;;;;5017665;28;20037;-71
2023/09/08 12:40:12;;;;;;;11.18;3.00;;;35.20;49.80;;;;;;5017876;28;20116;-71
2023/09/08 12:42:38;;;;;;;7.95;3.30;;;35.40;48.30;;;;;;5017446;28;20492;-71